sensor_id;sensor_type;location;lat;lon;timestamp;temperature;humidity
51500;DHT22;39101;53.478;6.158;2023-09-30T00:01:09;16.50;99.90
51500;DHT22;39101;53.478;6.158;2023-09-30T00:03:36;16.50;99.90
51500;DHT22;39101;53.478;6.158;2023-09-30T00:06:02;16.40;99.90
51500;DHT22;39101;53.478;6.158;2023-09-30T00:08:29;16.40;99.90
51500;DHT22;39101;53.478;6.158;2023-09-30T00:10:56;16.40;99.90
51500;DHT22;39101;53.478;6.158;2023-09-30T00:13:21;16.40;99.90
51500;DHT22;39101;53.478;6.158;2023-09-30T00:15:49;16.40;99.90
51500;DHT22;39101;53.478;6.158;2023-09-30T00:18:14;16.50;99.90
51500;DHT22;39101;53.478;6.158;2023-09-30T00:20:40;16.40;99.90
51500;DHT22;39101;53.478;6.158;2023-09-30T00:23:06;16.50;99.90
51500;DHT22;39101;53.478;6.158;2023-09-30T00:25:32;16.50;99.90
51500;DHT22;39101;53.478;6.158;2023-09-30T00:27:59;16.50;99.90
51500;DHT22;39101;53.478;6.158;2023-09-30T00:30:24;16.40;99.90
51500;DHT22;39101;53.478;6.158;2023-09-30T00:32:50;16.40;99.90
51500;DHT22;39101;53.478;6.158;2023-09-30T00:35:16;16.30;99.90
51500;DHT22;39101;53.478;6.158;2023-09-30T00:37:44;16.20;99.90
51500;DHT22;39101;53.478;6.158;2023-09-30T00:40:10;16.30;99.90
51500;DHT22;39101;53.478;6.158;2023-09-30T00:42:41;16.30;99.90
51500;DHT22;39101;53.478;6.158;2023-09-30T00:45:07;16.30;99.90
51500;DHT22;39101;53.478;6.158;2023-09-30T00:47:37;16.20;99.90
51500;DHT22;39101;53.478;6.158;2023-09-30T00:50:06;16.20;99.90
51500;DHT22;39101;53.478;6.158;2023-09-30T00:52:38;16.20;99.90
51500;DHT22;39101;53.478;6.158;2023-09-30T00:55:03;16.20;99.90
51500;DHT22;39101;53.478;6.158;2023-09-30T00:57:31;16.10;99.90
51500;DHT22;39101;53.478;6.158;2023-09-30T00:59:58;16.20;99.90
51500;DHT22;39101;53.478;6.158;2023-09-30T01:02:25;16.20;99.90
51500;DHT22;39101;53.478;6.158;2023-09-30T01:04:52;16.20;99.90
51500;DHT22;39101;53.478;6.158;2023-09-30T01:07:21;16.20;99.90
51500;DHT22;39101;53.478;6.158;2023-09-30T01:09:48;16.20;99.90
51500;DHT22;39101;53.478;6.158;2023-09-30T01:12:13;16.20;99.90
51500;DHT22;39101;53.478;6.158;2023-09-30T01:14:39;16.20;99.90
51500;DHT22;39101;53.478;6.158;2023-09-30T01:17:08;16.20;99.90
51500;DHT22;39101;53.478;6.158;2023-09-30T01:19:43;16.20;99.90
51500;DHT22;39101;53.478;6.158;2023-09-30T01:22:11;16.10;99.90
51500;DHT22;39101;53.478;6.158;2023-09-30T01:24:42;16.10;99.90
51500;DHT22;39101;53.478;6.158;2023-09-30T01:27:08;16.10;99.90
51500;DHT22;39101;53.478;6.158;2023-09-30T01:29:34;16.00;99.90
51500;DHT22;39101;53.478;6.158;2023-09-30T01:32:05;16.00;99.90
51500;DHT22;39101;53.478;6.158;2023-09-30T01:34:35;16.10;99.90
51500;DHT22;39101;53.478;6.158;2023-09-30T01:37:02;16.10;99.90
51500;DHT22;39101;53.478;6.158;2023-09-30T01:39:27;16.10;99.90
51500;DHT22;39101;53.478;6.158;2023-09-30T01:41:53;16.00;99.90
51500;DHT22;39101;53.478;6.158;2023-09-30T01:44:19;16.10;99.90
51500;DHT22;39101;53.478;6.158;2023-09-30T01:46:45;16.10;99.90
51500;DHT22;39101;53.478;6.158;2023-09-30T01:49:11;16.10;99.90
51500;DHT22;39101;53.478;6.158;2023-09-30T01:51:36;16.10;99.90
51500;DHT22;39101;53.478;6.158;2023-09-30T01:54:02;16.10;99.90
51500;DHT22;39101;53.478;6.158;2023-09-30T01:56:28;16.10;99.90
51500;DHT22;39101;53.478;6.158;2023-09-30T01:58:55;16.10;99.90
51500;DHT22;39101;53.478;6.158;2023-09-30T02:01:21;16.10;99.90
51500;DHT22;39101;53.478;6.158;2023-09-30T02:03:47;16.10;99.90
51500;DHT22;39101;53.478;6.158;2023-09-30T02:06:12;16.00;99.90
51500;DHT22;39101;53.478;6.158;2023-09-30T02:08:38;16.00;99.90
51500;DHT22;39101;53.478;6.158;2023-09-30T02:11:05;16.00;99.90
51500;DHT22;39101;53.478;6.158;2023-09-30T02:13:35;16.00;99.90
51500;DHT22;39101;53.478;6.158;2023-09-30T02:16:00;16.00;99.90
51500;DHT22;39101;53.478;6.158;2023-09-30T02:18:27;16.10;99.90
51500;DHT22;39101;53.478;6.158;2023-09-30T02:20:53;16.10;99.90
51500;DHT22;39101;53.478;6.158;2023-09-30T02:23:19;16.10;99.90
51500;DHT22;39101;53.478;6.158;2023-09-30T02:25:46;16.10;99.90
51500;DHT22;39101;53.478;6.158;2023-09-30T02:28:11;16.10;99.90
51500;DHT22;39101;53.478;6.158;2023-09-30T02:30:38;16.10;99.90
51500;DHT22;39101;53.478;6.158;2023-09-30T02:33:04;16.00;99.90
51500;DHT22;39101;53.478;6.158;2023-09-30T02:35:30;16.00;99.90
51500;DHT22;39101;53.478;6.158;2023-09-30T02:37:56;16.00;99.90
51500;DHT22;39101;53.478;6.158;2023-09-30T02:40:21;15.80;99.90
51500;DHT22;39101;53.478;6.158;2023-09-30T02:42:51;15.80;99.90
51500;DHT22;39101;53.478;6.158;2023-09-30T02:45:17;15.60;99.90
51500;DHT22;39101;53.478;6.158;2023-09-30T02:47:43;15.50;99.90
51500;DHT22;39101;53.478;6.158;2023-09-30T02:50:09;15.30;99.90
51500;DHT22;39101;53.478;6.158;2023-09-30T02:52:39;15.20;99.90
51500;DHT22;39101;53.478;6.158;2023-09-30T02:55:28;15.10;99.90
51500;DHT22;39101;53.478;6.158;2023-09-30T02:57:54;15.00;99.90
51500;DHT22;39101;53.478;6.158;2023-09-30T03:00:21;15.00;99.90
51500;DHT22;39101;53.478;6.158;2023-09-30T03:02:56;15.00;99.90
51500;DHT22;39101;53.478;6.158;2023-09-30T03:05:28;15.00;99.90
51500;DHT22;39101;53.478;6.158;2023-09-30T03:07:56;14.90;99.90
51500;DHT22;39101;53.478;6.158;2023-09-30T03:10:22;14.90;99.90
51500;DHT22;39101;53.478;6.158;2023-09-30T03:12:54;14.90;99.90
51500;DHT22;39101;53.478;6.158;2023-09-30T03:15:20;14.80;99.90
51500;DHT22;39101;53.478;6.158;2023-09-30T03:17:46;14.80;99.90
51500;DHT22;39101;53.478;6.158;2023-09-30T03:20:12;14.80;99.90
51500;DHT22;39101;53.478;6.158;2023-09-30T03:22:41;14.80;99.90
51500;DHT22;39101;53.478;6.158;2023-09-30T03:25:11;14.80;99.90
51500;DHT22;39101;53.478;6.158;2023-09-30T03:27:38;14.70;99.90
51500;DHT22;39101;53.478;6.158;2023-09-30T03:30:05;14.70;99.90
51500;DHT22;39101;53.478;6.158;2023-09-30T03:32:31;14.70;99.90
51500;DHT22;39101;53.478;6.158;2023-09-30T03:34:59;14.70;99.90
51500;DHT22;39101;53.478;6.158;2023-09-30T03:37:27;14.80;99.90
51500;DHT22;39101;53.478;6.158;2023-09-30T03:39:54;14.70;99.90
51500;DHT22;39101;53.478;6.158;2023-09-30T03:42:21;14.70;99.90
51500;DHT22;39101;53.478;6.158;2023-09-30T03:44:47;14.80;99.90
51500;DHT22;39101;53.478;6.158;2023-09-30T03:47:18;14.70;99.90
51500;DHT22;39101;53.478;6.158;2023-09-30T03:49:45;14.70;99.90
51500;DHT22;39101;53.478;6.158;2023-09-30T03:52:11;14.60;99.90
51500;DHT22;39101;53.478;6.158;2023-09-30T03:54:37;14.60;99.90
51500;DHT22;39101;53.478;6.158;2023-09-30T03:57:03;14.60;99.90
51500;DHT22;39101;53.478;6.158;2023-09-30T03:59:29;14.60;99.90
51500;DHT22;39101;53.478;6.158;2023-09-30T04:01:56;14.50;99.90
51500;DHT22;39101;53.478;6.158;2023-09-30T04:04:23;14.50;99.90
51500;DHT22;39101;53.478;6.158;2023-09-30T04:06:49;14.50;99.90
51500;DHT22;39101;53.478;6.158;2023-09-30T04:09:17;14.40;99.90
51500;DHT22;39101;53.478;6.158;2023-09-30T04:11:45;14.40;99.90
51500;DHT22;39101;53.478;6.158;2023-09-30T04:14:11;14.30;99.90
51500;DHT22;39101;53.478;6.158;2023-09-30T04:16:37;14.30;99.90
51500;DHT22;39101;53.478;6.158;2023-09-30T04:19:04;14.20;99.90
51500;DHT22;39101;53.478;6.158;2023-09-30T04:21:33;14.20;99.90
51500;DHT22;39101;53.478;6.158;2023-09-30T04:24:00;14.20;99.90
51500;DHT22;39101;53.478;6.158;2023-09-30T04:26:26;14.20;99.90
51500;DHT22;39101;53.478;6.158;2023-09-30T04:28:52;14.10;99.90
51500;DHT22;39101;53.478;6.158;2023-09-30T04:31:19;14.10;99.90
51500;DHT22;39101;53.478;6.158;2023-09-30T04:33:48;14.10;99.90
51500;DHT22;39101;53.478;6.158;2023-09-30T04:36:13;14.10;99.90
51500;DHT22;39101;53.478;6.158;2023-09-30T04:38:39;14.10;99.90
51500;DHT22;39101;53.478;6.158;2023-09-30T04:41:06;14.10;99.90
51500;DHT22;39101;53.478;6.158;2023-09-30T04:43:35;14.00;99.90
51500;DHT22;39101;53.478;6.158;2023-09-30T04:46:00;14.00;99.90
51500;DHT22;39101;53.478;6.158;2023-09-30T04:48:26;14.00;99.90
51500;DHT22;39101;53.478;6.158;2023-09-30T04:50:52;14.00;99.90
51500;DHT22;39101;53.478;6.158;2023-09-30T04:53:18;14.00;99.90
51500;DHT22;39101;53.478;6.158;2023-09-30T04:55:47;13.90;99.90
51500;DHT22;39101;53.478;6.158;2023-09-30T04:58:16;14.00;99.90
51500;DHT22;39101;53.478;6.158;2023-09-30T05:00:42;14.00;99.90
51500;DHT22;39101;53.478;6.158;2023-09-30T05:03:08;14.00;99.90
51500;DHT22;39101;53.478;6.158;2023-09-30T05:05:35;14.00;99.90
51500;DHT22;39101;53.478;6.158;2023-09-30T05:08:03;13.90;99.90
51500;DHT22;39101;53.478;6.158;2023-09-30T05:10:29;13.90;99.90
51500;DHT22;39101;53.478;6.158;2023-09-30T05:12:56;13.90;99.90
51500;DHT22;39101;53.478;6.158;2023-09-30T05:15:24;13.90;99.90
51500;DHT22;39101;53.478;6.158;2023-09-30T05:17:51;13.80;99.90
51500;DHT22;39101;53.478;6.158;2023-09-30T05:20:17;13.90;99.90
51500;DHT22;39101;53.478;6.158;2023-09-30T05:22:43;13.90;99.90
51500;DHT22;39101;53.478;6.158;2023-09-30T05:25:13;13.80;99.90
51500;DHT22;39101;53.478;6.158;2023-09-30T05:27:42;13.80;99.90
51500;DHT22;39101;53.478;6.158;2023-09-30T05:30:08;13.80;99.90
51500;DHT22;39101;53.478;6.158;2023-09-30T05:32:34;13.80;99.90
51500;DHT22;39101;53.478;6.158;2023-09-30T05:35:07;13.90;99.90
51500;DHT22;39101;53.478;6.158;2023-09-30T05:37:42;13.80;99.90
51500;DHT22;39101;53.478;6.158;2023-09-30T05:40:11;13.80;99.90
51500;DHT22;39101;53.478;6.158;2023-09-30T05:42:52;13.80;99.90
51500;DHT22;39101;53.478;6.158;2023-09-30T05:45:19;13.80;99.90
51500;DHT22;39101;53.478;6.158;2023-09-30T05:47:45;13.80;99.90
51500;DHT22;39101;53.478;6.158;2023-09-30T05:50:11;13.80;99.90
51500;DHT22;39101;53.478;6.158;2023-09-30T05:52:43;13.80;99.90
51500;DHT22;39101;53.478;6.158;2023-09-30T05:55:10;13.80;99.90
51500;DHT22;39101;53.478;6.158;2023-09-30T05:57:36;13.70;99.90
51500;DHT22;39101;53.478;6.158;2023-09-30T06:00:03;13.70;99.90
51500;DHT22;39101;53.478;6.158;2023-09-30T06:02:54;13.70;99.90
51500;DHT22;39101;53.478;6.158;2023-09-30T06:05:21;13.70;99.90
51500;DHT22;39101;53.478;6.158;2023-09-30T06:07:51;13.70;99.90
51500;DHT22;39101;53.478;6.158;2023-09-30T06:10:17;13.70;99.90
51500;DHT22;39101;53.478;6.158;2023-09-30T06:12:51;13.80;99.90
51500;DHT22;39101;53.478;6.158;2023-09-30T06:15:26;13.70;99.90
51500;DHT22;39101;53.478;6.158;2023-09-30T06:17:53;13.70;99.90
51500;DHT22;39101;53.478;6.158;2023-09-30T06:20:19;13.70;99.90
51500;DHT22;39101;53.478;6.158;2023-09-30T06:22:48;13.80;99.90
51500;DHT22;39101;53.478;6.158;2023-09-30T06:25:19;13.70;99.90
51500;DHT22;39101;53.478;6.158;2023-09-30T06:27:50;13.70;99.90
51500;DHT22;39101;53.478;6.158;2023-09-30T06:30:18;13.70;99.90
51500;DHT22;39101;53.478;6.158;2023-09-30T06:32:46;13.80;99.90
51500;DHT22;39101;53.478;6.158;2023-09-30T06:35:13;13.80;99.90
51500;DHT22;39101;53.478;6.158;2023-09-30T06:37:40;13.80;99.90
51500;DHT22;39101;53.478;6.158;2023-09-30T06:40:09;13.90;99.90
51500;DHT22;39101;53.478;6.158;2023-09-30T06:42:39;13.90;99.90
51500;DHT22;39101;53.478;6.158;2023-09-30T06:45:06;13.90;99.90
51500;DHT22;39101;53.478;6.158;2023-09-30T06:47:33;13.90;99.90
51500;DHT22;39101;53.478;6.158;2023-09-30T06:50:04;14.00;99.90
51500;DHT22;39101;53.478;6.158;2023-09-30T06:52:41;14.00;99.90
51500;DHT22;39101;53.478;6.158;2023-09-30T06:55:08;14.10;99.90
51500;DHT22;39101;53.478;6.158;2023-09-30T06:57:35;14.20;99.90
51500;DHT22;39101;53.478;6.158;2023-09-30T07:00:04;14.20;99.90
51500;DHT22;39101;53.478;6.158;2023-09-30T07:02:33;14.20;99.90
51500;DHT22;39101;53.478;6.158;2023-09-30T07:05:00;14.30;99.90
51500;DHT22;39101;53.478;6.158;2023-09-30T07:07:26;14.30;99.90
51500;DHT22;39101;53.478;6.158;2023-09-30T07:09:51;14.40;99.90
51500;DHT22;39101;53.478;6.158;2023-09-30T07:12:17;14.40;99.90
51500;DHT22;39101;53.478;6.158;2023-09-30T07:14:43;14.40;99.90
51500;DHT22;39101;53.478;6.158;2023-09-30T07:17:08;14.40;99.90
51500;DHT22;39101;53.478;6.158;2023-09-30T07:19:34;14.40;99.90
51500;DHT22;39101;53.478;6.158;2023-09-30T07:22:02;14.40;99.90
51500;DHT22;39101;53.478;6.158;2023-09-30T07:24:28;14.50;99.90
51500;DHT22;39101;53.478;6.158;2023-09-30T07:26:53;14.50;99.90
51500;DHT22;39101;53.478;6.158;2023-09-30T07:29:20;14.60;99.90
51500;DHT22;39101;53.478;6.158;2023-09-30T07:31:47;14.60;99.90
51500;DHT22;39101;53.478;6.158;2023-09-30T07:34:12;14.70;99.90
51500;DHT22;39101;53.478;6.158;2023-09-30T07:36:39;14.80;99.90
51500;DHT22;39101;53.478;6.158;2023-09-30T07:39:05;14.90;99.90
51500;DHT22;39101;53.478;6.158;2023-09-30T07:41:35;14.90;99.90
51500;DHT22;39101;53.478;6.158;2023-09-30T07:44:02;15.00;99.90
51500;DHT22;39101;53.478;6.158;2023-09-30T07:46:28;15.10;99.90
51500;DHT22;39101;53.478;6.158;2023-09-30T07:48:54;15.10;99.90
51500;DHT22;39101;53.478;6.158;2023-09-30T07:51:20;15.20;99.90
51500;DHT22;39101;53.478;6.158;2023-09-30T07:53:46;15.20;99.90
51500;DHT22;39101;53.478;6.158;2023-09-30T07:56:13;15.30;99.90
51500;DHT22;39101;53.478;6.158;2023-09-30T07:58:40;15.30;99.90
51500;DHT22;39101;53.478;6.158;2023-09-30T08:01:07;15.40;99.90
51500;DHT22;39101;53.478;6.158;2023-09-30T08:03:33;15.40;99.90
51500;DHT22;39101;53.478;6.158;2023-09-30T08:06:00;15.40;99.90
51500;DHT22;39101;53.478;6.158;2023-09-30T08:08:26;15.40;99.90
51500;DHT22;39101;53.478;6.158;2023-09-30T08:10:51;15.40;99.90
51500;DHT22;39101;53.478;6.158;2023-09-30T08:13:22;15.50;99.90
51500;DHT22;39101;53.478;6.158;2023-09-30T08:15:49;15.50;99.90
51500;DHT22;39101;53.478;6.158;2023-09-30T08:18:16;15.60;99.90
51500;DHT22;39101;53.478;6.158;2023-09-30T08:20:41;15.60;99.90
51500;DHT22;39101;53.478;6.158;2023-09-30T08:23:07;15.70;99.90
51500;DHT22;39101;53.478;6.158;2023-09-30T08:25:32;15.70;99.90
51500;DHT22;39101;53.478;6.158;2023-09-30T08:27:58;15.70;99.90
51500;DHT22;39101;53.478;6.158;2023-09-30T08:30:24;15.80;99.90
51500;DHT22;39101;53.478;6.158;2023-09-30T08:32:49;15.80;99.90
51500;DHT22;39101;53.478;6.158;2023-09-30T08:35:15;15.90;99.90
51500;DHT22;39101;53.478;6.158;2023-09-30T08:37:41;15.90;99.90
51500;DHT22;39101;53.478;6.158;2023-09-30T08:40:07;16.00;99.90
51500;DHT22;39101;53.478;6.158;2023-09-30T08:42:38;16.00;99.90
51500;DHT22;39101;53.478;6.158;2023-09-30T08:45:04;16.00;99.90
51500;DHT22;39101;53.478;6.158;2023-09-30T08:47:32;16.10;99.90
51500;DHT22;39101;53.478;6.158;2023-09-30T08:50:01;16.10;99.90
51500;DHT22;39101;53.478;6.158;2023-09-30T08:52:51;16.10;99.90
51500;DHT22;39101;53.478;6.158;2023-09-30T08:55:18;16.10;99.90
51500;DHT22;39101;53.478;6.158;2023-09-30T08:57:43;16.20;99.90
51500;DHT22;39101;53.478;6.158;2023-09-30T09:00:13;16.30;99.90
51500;DHT22;39101;53.478;6.158;2023-09-30T09:02:40;16.30;99.90
51500;DHT22;39101;53.478;6.158;2023-09-30T09:05:06;16.40;99.90
51500;DHT22;39101;53.478;6.158;2023-09-30T09:07:33;16.40;99.90
51500;DHT22;39101;53.478;6.158;2023-09-30T09:10:12;16.40;99.90
51500;DHT22;39101;53.478;6.158;2023-09-30T09:12:41;16.50;99.90
51500;DHT22;39101;53.478;6.158;2023-09-30T09:15:23;16.50;99.90
51500;DHT22;39101;53.478;6.158;2023-09-30T09:17:49;16.60;99.90
51500;DHT22;39101;53.478;6.158;2023-09-30T09:20:19;16.60;99.90
51500;DHT22;39101;53.478;6.158;2023-09-30T09:22:52;16.60;99.90
51500;DHT22;39101;53.478;6.158;2023-09-30T09:25:20;16.70;99.90
51500;DHT22;39101;53.478;6.158;2023-09-30T09:27:49;16.70;99.90
51500;DHT22;39101;53.478;6.158;2023-09-30T09:30:27;16.80;99.90
51500;DHT22;39101;53.478;6.158;2023-09-30T09:33:02;16.90;99.90
51500;DHT22;39101;53.478;6.158;2023-09-30T09:35:34;16.90;99.90
51500;DHT22;39101;53.478;6.158;2023-09-30T09:38:05;16.90;99.90
51500;DHT22;39101;53.478;6.158;2023-09-30T09:40:33;16.90;99.90
51500;DHT22;39101;53.478;6.158;2023-09-30T09:43:02;16.90;99.90
51500;DHT22;39101;53.478;6.158;2023-09-30T09:45:32;17.00;99.90
51500;DHT22;39101;53.478;6.158;2023-09-30T09:47:59;17.10;99.90
51500;DHT22;39101;53.478;6.158;2023-09-30T09:50:26;17.10;99.90
51500;DHT22;39101;53.478;6.158;2023-09-30T09:52:54;17.10;99.90
51500;DHT22;39101;53.478;6.158;2023-09-30T09:55:26;17.20;99.90
51500;DHT22;39101;53.478;6.158;2023-09-30T09:57:53;17.20;99.90
51500;DHT22;39101;53.478;6.158;2023-09-30T10:00:24;17.20;99.90
51500;DHT22;39101;53.478;6.158;2023-09-30T10:02:51;17.30;99.90
51500;DHT22;39101;53.478;6.158;2023-09-30T10:05:22;17.30;99.90
51500;DHT22;39101;53.478;6.158;2023-09-30T10:08:05;17.30;99.90
51500;DHT22;39101;53.478;6.158;2023-09-30T10:10:37;17.30;99.90
51500;DHT22;39101;53.478;6.158;2023-09-30T10:13:07;17.30;99.90
51500;DHT22;39101;53.478;6.158;2023-09-30T10:18:08;17.30;99.90
51500;DHT22;39101;53.478;6.158;2023-09-30T10:20:38;17.30;99.90
51500;DHT22;39101;53.478;6.158;2023-09-30T10:23:31;17.40;99.90
51500;DHT22;39101;53.478;6.158;2023-09-30T10:28:43;17.30;99.90
51500;DHT22;39101;53.478;6.158;2023-09-30T10:31:14;17.30;99.90
51500;DHT22;39101;53.478;6.158;2023-09-30T10:36:39;17.50;99.90
51500;DHT22;39101;53.478;6.158;2023-09-30T10:39:11;17.60;99.90
51500;DHT22;39101;53.478;6.158;2023-09-30T10:46:57;17.60;99.90
51500;DHT22;39101;53.478;6.158;2023-09-30T10:51:51;17.60;99.90
51500;DHT22;39101;53.478;6.158;2023-09-30T10:54:25;17.60;99.90
51500;DHT22;39101;53.478;6.158;2023-09-30T10:57:10;17.60;99.90
51500;DHT22;39101;53.478;6.158;2023-09-30T10:59:38;17.60;99.90
51500;DHT22;39101;53.478;6.158;2023-09-30T11:02:19;17.70;99.90
51500;DHT22;39101;53.478;6.158;2023-09-30T11:04:46;17.70;99.90
51500;DHT22;39101;53.478;6.158;2023-09-30T11:07:19;17.70;99.90
51500;DHT22;39101;53.478;6.158;2023-09-30T11:09:48;17.70;99.90
51500;DHT22;39101;53.478;6.158;2023-09-30T11:12:14;17.70;99.90
51500;DHT22;39101;53.478;6.158;2023-09-30T11:14:41;17.70;99.90
51500;DHT22;39101;53.478;6.158;2023-09-30T11:17:06;17.80;99.90
51500;DHT22;39101;53.478;6.158;2023-09-30T11:19:50;17.80;99.90
51500;DHT22;39101;53.478;6.158;2023-09-30T11:22:18;17.90;99.90
51500;DHT22;39101;53.478;6.158;2023-09-30T11:24:44;17.90;99.90
51500;DHT22;39101;53.478;6.158;2023-09-30T11:27:13;17.90;99.90
51500;DHT22;39101;53.478;6.158;2023-09-30T11:29:49;17.90;99.90
51500;DHT22;39101;53.478;6.158;2023-09-30T11:32:26;18.00;99.90
51500;DHT22;39101;53.478;6.158;2023-09-30T11:34:55;17.90;99.90
51500;DHT22;39101;53.478;6.158;2023-09-30T11:37:21;17.90;99.90
51500;DHT22;39101;53.478;6.158;2023-09-30T11:39:47;17.90;99.90
51500;DHT22;39101;53.478;6.158;2023-09-30T11:42:17;17.80;99.90
51500;DHT22;39101;53.478;6.158;2023-09-30T11:44:47;17.90;99.90
51500;DHT22;39101;53.478;6.158;2023-09-30T11:47:14;17.90;99.90
51500;DHT22;39101;53.478;6.158;2023-09-30T11:49:43;17.90;99.90
51500;DHT22;39101;53.478;6.158;2023-09-30T11:52:15;17.90;99.90
51500;DHT22;39101;53.478;6.158;2023-09-30T11:54:42;18.00;99.90
51500;DHT22;39101;53.478;6.158;2023-09-30T11:57:16;18.00;99.90
51500;DHT22;39101;53.478;6.158;2023-09-30T11:59:46;18.00;99.90
51500;DHT22;39101;53.478;6.158;2023-09-30T12:02:13;18.00;99.90
51500;DHT22;39101;53.478;6.158;2023-09-30T12:04:41;18.00;99.90
51500;DHT22;39101;53.478;6.158;2023-09-30T12:07:07;18.00;99.90
51500;DHT22;39101;53.478;6.158;2023-09-30T12:09:34;18.00;99.90
51500;DHT22;39101;53.478;6.158;2023-09-30T12:12:03;18.00;99.90
51500;DHT22;39101;53.478;6.158;2023-09-30T12:14:29;18.00;99.90
51500;DHT22;39101;53.478;6.158;2023-09-30T12:16:58;17.90;99.90
51500;DHT22;39101;53.478;6.158;2023-09-30T12:19:23;17.90;99.90
51500;DHT22;39101;53.478;6.158;2023-09-30T12:21:50;18.00;99.90
51500;DHT22;39101;53.478;6.158;2023-09-30T12:24:16;17.90;99.90
51500;DHT22;39101;53.478;6.158;2023-09-30T12:26:50;18.00;99.90
51500;DHT22;39101;53.478;6.158;2023-09-30T12:29:21;18.10;99.90
51500;DHT22;39101;53.478;6.158;2023-09-30T12:31:50;18.10;99.90
51500;DHT22;39101;53.478;6.158;2023-09-30T12:34:16;18.00;99.90
51500;DHT22;39101;53.478;6.158;2023-09-30T12:36:43;18.00;99.90
51500;DHT22;39101;53.478;6.158;2023-09-30T12:39:10;18.00;99.90
51500;DHT22;39101;53.478;6.158;2023-09-30T12:41:40;17.90;99.90
51500;DHT22;39101;53.478;6.158;2023-09-30T12:44:13;17.90;99.90
51500;DHT22;39101;53.478;6.158;2023-09-30T12:46:39;17.80;99.90
51500;DHT22;39101;53.478;6.158;2023-09-30T12:49:06;17.80;99.90
51500;DHT22;39101;53.478;6.158;2023-09-30T12:51:32;17.80;99.90
51500;DHT22;39101;53.478;6.158;2023-09-30T12:54:00;17.80;99.90
51500;DHT22;39101;53.478;6.158;2023-09-30T12:56:27;17.80;99.90
51500;DHT22;39101;53.478;6.158;2023-09-30T12:58:57;17.70;99.90
51500;DHT22;39101;53.478;6.158;2023-09-30T13:01:23;17.70;99.90
51500;DHT22;39101;53.478;6.158;2023-09-30T13:03:49;17.70;99.90
51500;DHT22;39101;53.478;6.158;2023-09-30T13:06:16;17.70;99.90
51500;DHT22;39101;53.478;6.158;2023-09-30T13:08:42;17.70;99.90
51500;DHT22;39101;53.478;6.158;2023-09-30T13:11:09;17.70;99.90
51500;DHT22;39101;53.478;6.158;2023-09-30T13:13:35;17.70;99.90
51500;DHT22;39101;53.478;6.158;2023-09-30T13:16:02;17.70;99.90
51500;DHT22;39101;53.478;6.158;2023-09-30T13:18:28;17.60;99.90
51500;DHT22;39101;53.478;6.158;2023-09-30T13:20:53;17.60;99.90
51500;DHT22;39101;53.478;6.158;2023-09-30T13:23:20;17.50;99.90
51500;DHT22;39101;53.478;6.158;2023-09-30T13:25:49;17.50;99.90
51500;DHT22;39101;53.478;6.158;2023-09-30T13:28:15;17.40;99.90
51500;DHT22;39101;53.478;6.158;2023-09-30T13:30:43;17.50;99.90
51500;DHT22;39101;53.478;6.158;2023-09-30T13:33:11;17.40;99.90
51500;DHT22;39101;53.478;6.158;2023-09-30T13:35:37;17.40;99.90
51500;DHT22;39101;53.478;6.158;2023-09-30T13:38:03;17.40;99.90
51500;DHT22;39101;53.478;6.158;2023-09-30T13:40:29;17.40;99.90
51500;DHT22;39101;53.478;6.158;2023-09-30T13:42:56;17.50;99.90
51500;DHT22;39101;53.478;6.158;2023-09-30T13:45:24;17.50;99.90
51500;DHT22;39101;53.478;6.158;2023-09-30T13:47:50;17.50;99.90
51500;DHT22;39101;53.478;6.158;2023-09-30T13:50:15;17.40;99.90
51500;DHT22;39101;53.478;6.158;2023-09-30T13:52:41;17.50;99.90
51500;DHT22;39101;53.478;6.158;2023-09-30T13:55:07;17.40;99.90
51500;DHT22;39101;53.478;6.158;2023-09-30T13:57:34;17.40;99.90
51500;DHT22;39101;53.478;6.158;2023-09-30T14:00:01;17.40;99.90
51500;DHT22;39101;53.478;6.158;2023-09-30T14:02:28;17.30;99.90
51500;DHT22;39101;53.478;6.158;2023-09-30T14:04:54;17.30;99.90
51500;DHT22;39101;53.478;6.158;2023-09-30T14:07:20;17.30;99.90
51500;DHT22;39101;53.478;6.158;2023-09-30T14:09:49;17.20;99.90
51500;DHT22;39101;53.478;6.158;2023-09-30T14:12:16;17.10;99.90
51500;DHT22;39101;53.478;6.158;2023-09-30T14:14:41;17.10;99.90
51500;DHT22;39101;53.478;6.158;2023-09-30T14:17:07;17.10;99.90
51500;DHT22;39101;53.478;6.158;2023-09-30T14:19:37;17.10;99.90
51500;DHT22;39101;53.478;6.158;2023-09-30T14:22:06;17.10;99.90
51500;DHT22;39101;53.478;6.158;2023-09-30T14:24:35;17.00;99.90
51500;DHT22;39101;53.478;6.158;2023-09-30T14:27:02;17.00;99.90
51500;DHT22;39101;53.478;6.158;2023-09-30T14:29:29;17.00;99.90
51500;DHT22;39101;53.478;6.158;2023-09-30T14:31:55;17.10;99.90
51500;DHT22;39101;53.478;6.158;2023-09-30T14:34:23;17.10;99.90
51500;DHT22;39101;53.478;6.158;2023-09-30T14:36:52;17.00;99.90
51500;DHT22;39101;53.478;6.158;2023-09-30T14:39:18;17.00;99.90
51500;DHT22;39101;53.478;6.158;2023-09-30T14:41:44;17.00;99.90
51500;DHT22;39101;53.478;6.158;2023-09-30T14:44:11;17.00;99.90
51500;DHT22;39101;53.478;6.158;2023-09-30T14:46:40;17.00;99.90
51500;DHT22;39101;53.478;6.158;2023-09-30T14:49:07;17.00;99.90
51500;DHT22;39101;53.478;6.158;2023-09-30T14:51:35;17.00;99.90
51500;DHT22;39101;53.478;6.158;2023-09-30T14:54:03;17.00;99.90
51500;DHT22;39101;53.478;6.158;2023-09-30T14:56:34;17.00;99.90
51500;DHT22;39101;53.478;6.158;2023-09-30T14:59:01;16.90;99.90
51500;DHT22;39101;53.478;6.158;2023-09-30T15:01:28;16.90;99.90
51500;DHT22;39101;53.478;6.158;2023-09-30T15:03:54;16.90;99.90
51500;DHT22;39101;53.478;6.158;2023-09-30T15:06:20;17.00;99.90
51500;DHT22;39101;53.478;6.158;2023-09-30T15:08:48;16.90;99.90
51500;DHT22;39101;53.478;6.158;2023-09-30T15:11:14;16.90;99.90
51500;DHT22;39101;53.478;6.158;2023-09-30T15:13:40;16.90;99.90
51500;DHT22;39101;53.478;6.158;2023-09-30T15:16:18;17.00;99.90
51500;DHT22;39101;53.478;6.158;2023-09-30T15:18:46;16.80;99.90
51500;DHT22;39101;53.478;6.158;2023-09-30T15:21:13;16.90;99.90
51500;DHT22;39101;53.478;6.158;2023-09-30T15:23:40;16.80;99.90
51500;DHT22;39101;53.478;6.158;2023-09-30T15:26:06;16.80;99.90
51500;DHT22;39101;53.478;6.158;2023-09-30T15:28:33;16.70;99.90
51500;DHT22;39101;53.478;6.158;2023-09-30T15:30:58;16.80;99.90
51500;DHT22;39101;53.478;6.158;2023-09-30T15:33:27;16.80;99.90
51500;DHT22;39101;53.478;6.158;2023-09-30T15:35:53;16.80;99.90
51500;DHT22;39101;53.478;6.158;2023-09-30T15:38:18;16.80;99.90
51500;DHT22;39101;53.478;6.158;2023-09-30T15:40:57;16.80;99.90
51500;DHT22;39101;53.478;6.158;2023-09-30T15:43:27;16.80;99.90
51500;DHT22;39101;53.478;6.158;2023-09-30T15:45:55;16.70;99.90
51500;DHT22;39101;53.478;6.158;2023-09-30T15:48:21;16.70;99.90
51500;DHT22;39101;53.478;6.158;2023-09-30T15:50:47;16.70;99.90